Terminal Aerodrome Forecast
Issued by NWS Mobile, AL

Home | Current Version | Previous Version | Text Only | Print | Product List | Glossary On
Versions: 1 2 3 4 5 6 7 8 9 10 11 12 13 14 15 16 17 18 19 20 21 22 23 24 25 26 27 28 29 30 31 32 33 34 35 36 37 38 39 40 41
000
FTUS44 KMOB 310052 AAA
TAFPNS
TAF AMD
KPNS 310052Z 3101/3124 07009KT P6SM -RA OVC100
     FM310400 VRB04KT 4SM BR OVC007
     FM310700 00000KT 1SM BR OVC003
      TEMPO 3108/3112 1/2SM FG VV003
     FM311500 33005KT P6SM SKC=

USA.gov is the U.S. government's official web portal to all federal, state and local government web resources and services.